Kjella — JXMW — position and weather

sailwx.info

Track history (hours):
 
Tides and Currents Weather Stations Pressure Air Temp Water Temp Dewpoint Dewpoint Depression Visibility Wind Speed Wind Dir Waves Ship Positions

Kjella

Last reported at 2018-Jun-20 21:05 UTC. Time now 2018-Jun-20 22:54 UTC.
Position N 65°48' E 012°30'.

Length 55 m; draft 3.5 m.

Type: Passenger vessel. MMSI: 257049700.

Date/timePositionNaut miles runAvg speedWind from/ knotsBaromVisibWave heightAir tempDewpointWater temp
2018-Jun-20 21:05N 65°48' E 012°30'0 0.9
2018-Jun-20 20:55N 65°48' E 012°31'0 0.3
2018-Jun-20 20:22N 65°48' E 012°30'3 7.3
2018-Jun-20 19:57N 65°45' E 012°32'3 2.8
2018-Jun-20 18:53N 65°48' E 012°30'0 0.4
2018-Jun-20 18:13N 65°48' E 012°30'2 6.9
2018-Jun-20 17:58N 65°47' E 012°31'4 7.8
2018-Jun-20 17:29N 65°43' E 012°27'3 5.0
2018-Jun-20 16:59N 65°45' E 012°32'3 5.9
2018-Jun-20 16:27N 65°48' E 012°31'0 0.1
2018-Jun-20 15:30N 65°48' E 012°30'3 6.2
2018-Jun-20 14:59N 65°45' E 012°31'3 2.5
2018-Jun-20 13:47N 65°48' E 012°31'0 0.1
2018-Jun-20 13:01N 65°48' E 012°31'1 8.5
2018-Jun-20 12:57N 65°48' E 012°32'5 9.6
2018-Jun-20 12:27N 65°43' E 012°27'0 0.9
2018-Jun-20 12:00N 65°44' E 012°28'5 9.7
2018-Jun-20 11:30N 65°48' E 012°30'0 0.0
2018-Jun-20 10:34N 65°48' E 012°30'512.1
2018-Jun-20 10:11N 65°44' E 012°28'1 5.9
2018-Jun-20 10:00N 65°43' E 012°27'3 5.5
2018-Jun-20 09:23N 65°45' E 012°32'2 5.5
2018-Jun-20 08:58N 65°48' E 012°32'1 1.1
2018-Jun-20 08:16N 65°48' E 012°30'4 9.5
2018-Jun-20 07:48N 65°44' E 012°28'1 1.8
2018-Jun-20 07:11N 65°45' E 012°30'2 4.7
2018-Jun-20 06:48N 65°47' E 012°31'2 1.9
2018-Jun-20 05:44N 65°48' E 012°30'2 6.3
2018-Jun-20 05:27N 65°47' E 012°31'4 7.6
2018-Jun-20 04:56N 65°43' E 012°28'3 6.0
2018-Jun-20 04:28N 65°45' E 012°32'3 0.4
2018-Jun-19 20:19N 65°48' E 012°30'3 7.2
2018-Jun-19 19:52N 65°45' E 012°32'2 2.7
2018-Jun-19 19:02N 65°48' E 012°31'0 4.2
2018-Jun-19 18:58N 65°48' E 012°32'1 0.8
2018-Jun-19 17:58N 65°48' E 012°30'5 9.0
2018-Jun-19 17:24N 65°43' E 012°28'3 7.1
2018-Jun-19 16:58N 65°46' E 012°32'4 2.8
2018-Jun-19 15:35N 65°49' E 012°27'111.1
2018-Jun-19 15:28N 65°48' E 012°30'3 6.9
2018-Jun-19 15:01N 65°45' E 012°31'3 5.0
2018-Jun-19 14:27N 65°43' E 012°28'5 9.8
2018-Jun-19 13:58N 65°48' E 012°31'1 1.0
2018-Jun-19 13:06N 65°48' E 012°30'1 5.2
2018-Jun-19 12:55N 65°47' E 012°31'410.3
2018-Jun-19 12:29N 65°43' E 012°27'3 4.8
2018-Jun-19 11:52N 65°45' E 012°32'3 7.3
2018-Jun-19 11:27N 65°48' E 012°30'0 0.2
2018-Jun-19 10:45N 65°48' E 012°31'3 7.5
2018-Jun-19 10:22N 65°46' E 012°32'5 0.3
2018-Jun-18 20:50N 65°49' E 012°26'0 0.0
2018-Jun-18 20:30N 65°49' E 012°26'3 5.9
2018-Jun-18 19:59N 65°47' E 012°30'4 8.8
2018-Jun-18 19:30N 65°43' E 012°28'4 8.5
2018-Jun-18 18:59N 65°47' E 012°30'3 6.1
2018-Jun-18 18:30N 65°49' E 012°26'3 6.4
2018-Jun-18 18:00N 65°47' E 012°31'4 7.5
2018-Jun-18 17:30N 65°43' E 012°28'2 4.9
2018-Jun-18 17:00N 65°45' E 012°32'3 5.5
2018-Jun-18 16:30N 65°48' E 012°31'2 4.9
2018-Jun-18 16:00N 65°49' E 012°26'2 3.4
2018-Jun-18 15:30N 65°49' E 012°29'3 6.4
2018-Jun-18 15:00N 65°46' E 012°33'3 7.0
2018-Jun-18 14:31N 65°43' E 012°28'4 7.9
2018-Jun-18 14:00N 65°47' E 012°30'3 6.4
2018-Jun-18 13:31N 65°49' E 012°26'3 5.3
2018-Jun-18 13:00N 65°48' E 012°31'5 9.4
2018-Jun-18 12:29N 65°43' E 012°27'1 2.9
2018-Jun-18 12:00N 65°44' E 012°29'3 6.8
2018-Jun-18 11:30N 65°48' E 012°31'3 5.0
2018-Jun-18 11:00N 65°49' E 012°26'5 9.8
2018-Jun-18 10:30N 65°46' E 012°33'4 7.1
2018-Jun-18 09:59N 65°43' E 012°28'2 4.1
2018-Jun-18 09:31N 65°45' E 012°30'3 6.7
2018-Jun-18 09:00N 65°48' E 012°31'3 5.4
2018-Jun-18 08:30N 65°49' E 012°26'3 6.5
2018-Jun-18 08:00N 65°47' E 012°30'4 7.8
2018-Jun-18 07:30N 65°43' E 012°28'4 7.4
2018-Jun-18 07:00N 65°46' E 012°33'3 6.6
2018-Jun-18 06:30N 65°48' E 012°30'2 3.0
2018-Jun-18 06:00N 65°49' E 012°26'3 5.8
2018-Jun-18 05:31N 65°47' E 012°31'4 7.1
2018-Jun-18 04:59N 65°43' E 012°28'1 2.6
2018-Jun-18 04:30N 65°44' E 012°30'4 7.5
2018-Jun-18 04:00N 65°48' E 012°31'2 4.7
2018-Jun-18 03:30N 65°49' E 012°26'0 0.0
2018-Jun-18 03:00N 65°49' E 012°26'0 0.0
2018-Jun-18 02:29N 65°49' E 012°26'0 0.0
2018-Jun-18 02:00N 65°49' E 012°26'0 0.0
2018-Jun-18 01:30N 65°49' E 012°26'0 0.0
2018-Jun-18 00:59N 65°49' E 012°26'0 0.0
2018-Jun-18 00:29N 65°49' E 012°26'0 0.0
2018-Jun-17 23:59N 65°49' E 012°26'0 0.0
2018-Jun-17 23:31N 65°49' E 012°26'0 0.0
2018-Jun-17 23:01N 65°49' E 012°26'0 0.0
2018-Jun-17 22:30N 65°49' E 012°26'0 0.0
2018-Jun-17 22:00N 65°49' E 012°26'0 0.0
2018-Jun-17 21:30N 65°49' E 012°26'0 0.0
2018-Jun-17 21:00N 65°49' E 012°26'0 0.0
2018-Jun-17 20:30N 65°49' E 012°26'3 5.2
2018-Jun-17 20:00N 65°48' E 012°31'510.2
2018-Jun-17 19:31N 65°43' E 012°28'5 8.8
2018-Jun-17 19:00N 65°47' E 012°31'3 5.7
2018-Jun-17 18:29N 65°49' E 012°26'3 6.9
2018-Jun-17 18:00N 65°47' E 012°31'4 7.6
2018-Jun-17 17:30N 65°43' E 012°28'2 4.7
2018-Jun-17 17:01N 65°45' E 012°31'3 5.8
2018-Jun-17 16:30N 65°48' E 012°31'3 5.2
2018-Jun-17 16:00N 65°49' E 012°26'2 4.4
2018-Jun-17 15:29N 65°48' E 012°31'3 5.6
2018-Jun-17 15:00N 65°45' E 012°32'3 6.8
2018-Jun-17 14:30N 65°43' E 012°28'4 8.9
2018-Jun-17 14:00N 65°47' E 012°31'3 5.9
2018-Jun-17 13:30N 65°49' E 012°26'0 0.0
2018-Jun-17 13:00N 65°49' E 012°26'0 0.0
2018-Jun-17 12:30N 65°49' E 012°26'0 0.0
2018-Jun-17 11:59N 65°49' E 012°26'0 0.0
2018-Jun-17 11:29N 65°49' E 012°26'0 0.0
2018-Jun-17 11:00N 65°49' E 012°26'5 9.6
2018-Jun-17 10:30N 65°46' E 012°33'4 7.3
2018-Jun-17 10:00N 65°43' E 012°28'2 4.1
2018-Jun-17 09:31N 65°45' E 012°30'3 6.2
2018-Jun-17 08:59N 65°48' E 012°32'2 4.4
2018-Jun-17 08:30N 65°49' E 012°27'3 5.9
2018-Jun-17 08:01N 65°46' E 012°29'3 6.5
2018-Jun-17 07:31N 65°43' E 012°28'3 5.3
2018-Jun-17 06:59N 65°45' E 012°31'3 7.0
2018-Jun-17 06:30N 65°48' E 012°30'2 3.7
2018-Jun-17 06:00N 65°49' E 012°26'0 0.0
2018-Jun-17 05:30N 65°49' E 012°26'0 0.0
2018-Jun-17 05:00N 65°49' E 012°26'0 0.0
2018-Jun-17 04:30N 65°49' E 012°26'0 0.0
2018-Jun-17 04:00N 65°49' E 012°26'0 0.0
2018-Jun-17 03:30N 65°49' E 012°26'0 0.0
2018-Jun-17 03:00N 65°49' E 012°26'0 0.0
2018-Jun-17 02:30N 65°49' E 012°26'0 0.0
2018-Jun-17 02:00N 65°49' E 012°26'0 0.0
2018-Jun-17 01:30N 65°49' E 012°26'0 0.0
2018-Jun-17 01:00N 65°49' E 012°26'0 0.0
2018-Jun-17 00:30N 65°49' E 012°26'0 0.0
2018-Jun-17 00:00N 65°49' E 012°26'0 0.0
2018-Jun-16 23:31N 65°49' E 012°26'0 0.0
2018-Jun-16 23:01N 65°49' E 012°26'0 0.0
2018-Jun-16 22:30N 65°49' E 012°26'0 0.0
2018-Jun-16 22:00N 65°49' E 012°26'0 0.0
2018-Jun-16 21:30N 65°49' E 012°26'0 0.0
2018-Jun-16 21:00N 65°49' E 012°26'0 0.0
2018-Jun-16 20:28N 65°49' E 012°26'3 5.4
2018-Jun-16 20:00N 65°48' E 012°31'510.1
2018-Jun-16 19:30N 65°43' E 012°28'510.5
2018-Jun-16 19:00N 65°48' E 012°31'3 5.4
2018-Jun-16 18:30N 65°49' E 012°26'1 2.8
2018-Jun-16 18:00N 65°49' E 012°29'4 8.6
2018-Jun-16 17:30N 65°44' E 012°28'1 1.8
2018-Jun-16 16:59N 65°45' E 012°30'3 6.7
2018-Jun-16 16:30N 65°48' E 012°31'3 5.4
2018-Jun-16 16:00N 65°49' E 012°26'2 3.1
2018-Jun-16 15:30N 65°49' E 012°29'3 7.0
2018-Jun-16 15:00N 65°46' E 012°33'4 7.3
2018-Jun-16 14:30N 65°43' E 012°28'5 9.7
2018-Jun-16 13:59N 65°48' E 012°31'3 5.7
2018-Jun-16 13:30N 65°49' E 012°26'0 0.0
2018-Jun-16 13:00N 65°49' E 012°26'0 0.0
2018-Jun-16 12:30N 65°49' E 012°26'0 0.0
2018-Jun-16 11:59N 65°49' E 012°26'0 0.0
2018-Jun-16 11:30N 65°49' E 012°26'1 1.5
2018-Jun-16 11:00N 65°49' E 012°27'4 7.6
2018-Jun-16 10:30N 65°46' E 012°32'3 6.5
2018-Jun-16 10:00N 65°43' E 012°28'2 4.3
2018-Jun-16 09:31N 65°45' E 012°30'3 5.9
2018-Jun-16 09:00N 65°48' E 012°32'3 5.5
2018-Jun-16 08:30N 65°49' E 012°26'3 5.4
2018-Jun-16 08:00N 65°48' E 012°31'510.4
2018-Jun-16 07:30N 65°43' E 012°28'3 6.5
2018-Jun-16 07:00N 65°45' E 012°32'3 6.5
2018-Jun-16 06:30N 65°48' E 012°30'2 3.5
2018-Jun-16 06:00N 65°49' E 012°26'2 4.9
2018-Jun-16 05:30N 65°48' E 012°31'510.3
2018-Jun-16 05:00N 65°43' E 012°28'3 5.6
2018-Jun-16 04:30N 65°45' E 012°31'3 6.3
2018-Jun-16 04:00N 65°48' E 012°31'2 4.4
2018-Jun-16 03:30N 65°49' E 012°26'0 0.0
2018-Jun-16 02:59N 65°49' E 012°26'0 0.0
2018-Jun-16 02:30N 65°49' E 012°26'0 0.0
2018-Jun-16 02:00N 65°49' E 012°26'0 0.0
2018-Jun-16 01:30N 65°49' E 012°26'0 0.0
2018-Jun-16 00:59N 65°49' E 012°26'0 0.0
2018-Jun-16 00:29N 65°49' E 012°26'0 0.0
2018-Jun-15 23:59N 65°49' E 012°26'0 0.0
2018-Jun-15 23:29N 65°49' E 012°26'0 0.0
2018-Jun-15 23:00N 65°49' E 012°26'0 0.0
2018-Jun-15 22:29N 65°49' E 012°26'0 0.0
2018-Jun-15 22:00N 65°49' E 012°26'0 0.0
2018-Jun-15 21:30N 65°49' E 012°26'0 0.0
2018-Jun-15 21:00N 65°49' E 012°26'1 1.4
2018-Jun-15 20:29N 65°49' E 012°27'4 8.3
2018-Jun-15 20:00N 65°46' E 012°33'4 7.7
2018-Jun-15 19:31N 65°43' E 012°28'5 9.1
2018-Jun-15 19:00N 65°47' E 012°31'3 5.6
2018-Jun-15 18:30N 65°49' E 012°26'3 6.9
2018-Jun-15 17:59N 65°46' E 012°30'3 7.1
2018-Jun-15 17:30N 65°43' E 012°28'4 7.1
2018-Jun-15 17:00N 65°46' E 012°33'3 5.9
2018-Jun-15 16:29N 65°48' E 012°30'2 3.8
2018-Jun-15 16:00N 65°49' E 012°26'2 3.3
2018-Jun-15 15:30N 65°49' E 012°29'3 6.8
2018-Jun-15 15:00N 65°45' E 012°31'2 4.8
2018-Jun-15 14:29N 65°43' E 012°27'5 9.3
2018-Jun-15 14:00N 65°48' E 012°31'3 5.6
2018-Jun-15 13:31N 65°49' E 012°26'3 5.4
2018-Jun-15 13:00N 65°48' E 012°31'5 9.6
2018-Jun-15 12:30N 65°43' E 012°27'2 4.2
2018-Jun-15 12:00N 65°45' E 012°31'3 6.1
2018-Jun-15 11:30N 65°48' E 012°31'2 4.9
2018-Jun-15 11:00N 65°49' E 012°26'4 7.0
2018-Jun-15 10:30N 65°47' E 012°31'4 8.0
2018-Jun-15 10:00N 65°43' E 012°28'3 5.8
2018-Jun-15 09:30N 65°45' E 012°32'3 5.1
2018-Jun-15 09:00N 65°48' E 012°31'3 5.6
2018-Jun-15 08:30N 65°49' E 012°26'3 6.3
2018-Jun-15 08:00N 65°47' E 012°30'4 8.0
2018-Jun-15 07:31N 65°43' E 012°28'4 7.1
2018-Jun-15 07:00N 65°46' E 012°33'3 6.7
2018-Jun-15 06:30N 65°48' E 012°30'0 0.1
2018-Jun-15 06:01N 65°48' E 012°30'3 6.4
2018-Jun-15 05:30N 65°46' E 012°33'4 7.2
2018-Jun-15 05:00N 65°43' E 012°28'3 5.6
2018-Jun-15 04:30N 65°45' E 012°32'3 6.5
2018-Jun-15 04:00N 65°48' E 012°30'2 3.6
2018-Jun-15 03:29N 65°49' E 012°26'0 0.0
2018-Jun-15 03:00N 65°49' E 012°26'0 0.0
2018-Jun-15 02:30N 65°49' E 012°26'0 0.0
2018-Jun-15 02:01N 65°49' E 012°26'0 0.0
2018-Jun-15 01:31N 65°49' E 012°26'0 0.0
2018-Jun-15 01:00N 65°49' E 012°26'0 0.0
2018-Jun-15 00:30N 65°49' E 012°26'0 0.0
2018-Jun-15 00:00N 65°49' E 012°26'0 0.0
2018-Jun-14 23:29N 65°49' E 012°26'0 0.0
2018-Jun-14 22:59N 65°49' E 012°26'0 0.0
2018-Jun-14 22:30N 65°49' E 012°26'0 0.0
2018-Jun-14 21:59N 65°49' E 012°26'0 0.0
2018-Jun-14 21:30N 65°49' E 012°26'0 0.0
2018-Jun-14 21:00N 65°49' E 012°26'0 0.0
2018-Jun-14 20:30N 65°49' E 012°26'3 6.0
2018-Jun-14 20:01N 65°47' E 012°31'4 8.8
2018-Jun-14 19:30N 65°43' E 012°28'4 8.3
2018-Jun-14 19:00N 65°47' E 012°30'3 6.2
2018-Jun-14 18:30N 65°49' E 012°26'3 5.6
2018-Jun-14 18:00N 65°48' E 012°31'4 7.1
2018-Jun-14 17:30N 65°44' E 012°30'1 1.7
2018-Jun-14 17:00N 65°44' E 012°28'5 9.1
2018-Jun-14 16:30N 65°48' E 012°31'2 4.1
2018-Jun-14 15:59N 65°49' E 012°26'1 1.6
2018-Jun-14 15:30N 65°49' E 012°27'4 7.8
2018-Jun-14 15:00N 65°46' E 012°33'4 7.1
2018-Jun-14 14:30N 65°43' E 012°28'4 8.8
2018-Jun-14 14:00N 65°47' E 012°31'3 5.7
2018-Jun-14 13:29N 65°49' E 012°26'2 4.3
2018-Jun-14 13:00N 65°48' E 012°30'510.0
2018-Jun-14 12:30N 65°43' E 012°28'2 4.1
2018-Jun-14 12:00N 65°45' E 012°31'3 6.0
2018-Jun-14 11:30N 65°48' E 012°31'2 4.8
2018-Jun-14 11:00N 65°49' E 012°26'5 9.2
2018-Jun-14 10:30N 65°46' E 012°33'4 7.7
2018-Jun-14 10:00N 65°43' E 012°28'2 4.3
2018-Jun-14 09:30N 65°45' E 012°30'3 6.4
2018-Jun-14 09:00N 65°48' E 012°32'3 5.4
2018-Jun-14 08:30N 65°49' E 012°26'3 6.6
2018-Jun-14 08:01N 65°47' E 012°30'4 8.0
2018-Jun-14 07:30N 65°43' E 012°28'4 7.5
2018-Jun-14 07:00N 65°46' E 012°33'3 6.5
2018-Jun-14 06:31N 65°48' E 012°30'2 3.6
2018-Jun-14 06:00N 65°49' E 012°26'3 6.0
2018-Jun-14 05:30N 65°47' E 012°31'4 7.2
2018-Jun-14 05:00N 65°44' E 012°29'1 1.6
2018-Jun-14 04:31N 65°44' E 012°29'4 7.3
2018-Jun-14 04:00N 65°48' E 012°31'2 4.9
2018-Jun-14 03:30N 65°49' E 012°26'0 0.0
2018-Jun-14 03:00N 65°49' E 012°26'0 0.0
2018-Jun-14 02:30N 65°49' E 012°26'0 0.0
2018-Jun-14 02:00N 65°49' E 012°26'0 0.0
2018-Jun-14 01:31N 65°49' E 012°26'0 0.0
2018-Jun-14 01:00N 65°49' E 012°26'0 0.0
2018-Jun-14 00:29N 65°49' E 012°26'0 0.0
2018-Jun-14 00:00N 65°49' E 012°26'0 0.0
2018-Jun-13 23:30N 65°49' E 012°26'0 0.0
2018-Jun-13 23:00N 65°49' E 012°26'0 0.0
2018-Jun-13 22:30N 65°49' E 012°26'0 0.0
2018-Jun-13 22:00N 65°49' E 012°26'0 0.0
2018-Jun-13 21:30N 65°49' E 012°26'0 0.0
2018-Jun-13 21:00N 65°49' E 012°26'0 0.0
2018-Jun-13 20:30N 65°49' E 012°26'4 7.4
2018-Jun-13 20:00N 65°46' E 012°30'3 5.7
2018-Jun-13 19:30N 65°43' E 012°27'5 9.6
2018-Jun-13 19:00N 65°48' E 012°32'3 5.4
2018-Jun-13 18:30N 65°49' E 012°26'4 8.2
2018-Jun-13 18:00N 65°46' E 012°32'3 6.9
2018-Jun-13 17:30N 65°43' E 012°27'2 3.9
2018-Jun-13 17:00N 65°45' E 012°30'3 6.3
2018-Jun-13 16:30N 65°48' E 012°31'3 5.2
2018-Jun-13 16:00N 65°49' E 012°26'2 3.3
2018-Jun-13 15:30N 65°49' E 012°29'3 6.3
2018-Jun-13 15:00N 65°46' E 012°33'4 7.5
2018-Jun-13 14:30N 65°43' E 012°28'4 8.1
2018-Jun-13 14:00N 65°47' E 012°30'3 6.2
2018-Jun-13 13:30N 65°49' E 012°26'3 5.6
2018-Jun-13 13:00N 65°48' E 012°31'5 9.6
2018-Jun-13 12:30N 65°43' E 012°27'2 3.0
2018-Jun-13 12:00N 65°45' E 012°29'4 7.0
2018-Jun-13 11:30N 65°48' E 012°31'2 4.3
2018-Jun-13 11:00N 65°49' E 012°26'4 8.8
2018-Jun-13 10:30N 65°46' E 012°33'4 7.6
2018-Jun-13 10:00N 65°43' E 012°28'2 4.4
2018-Jun-13 09:31N 65°45' E 012°30'3 6.1
2018-Jun-13 09:00N 65°48' E 012°32'3 5.7
2018-Jun-13 08:31N 65°49' E 012°26'3 6.3
2018-Jun-13 08:00N 65°47' E 012°30'4 8.2
2018-Jun-13 07:31N 65°43' E 012°28'4 7.4
2018-Jun-13 07:00N 65°46' E 012°33'3 6.4
2018-Jun-13 06:30N 65°48' E 012°30'2 3.7
2018-Jun-13 06:01N 65°49' E 012°26'3 5.5
2018-Jun-13 05:31N 65°48' E 012°31'5 9.8
2018-Jun-13 05:00N 65°43' E 012°27'2 4.6
2018-Jun-13 04:30N 65°45' E 012°31'4 7.0
2018-Jun-13 04:00N 65°48' E 012°30'2 3.7
2018-Jun-13 03:30N 65°49' E 012°26'0 0.0
2018-Jun-13 03:00N 65°49' E 012°26'0 0.0
2018-Jun-13 02:30N 65°49' E 012°26'0 0.0
2018-Jun-13 01:59N 65°49' E 012°26'0 0.0
2018-Jun-13 01:30N 65°49' E 012°26'0 0.0
2018-Jun-13 00:59N 65°49' E 012°26'0 0.0
2018-Jun-13 00:28N 65°49' E 012°26'0 0.0
2018-Jun-13 00:00N 65°49' E 012°26'0 0.0
2018-Jun-12 23:30N 65°49' E 012°26'0 0.0
2018-Jun-12 23:00N 65°49' E 012°26'0 0.0
2018-Jun-12 22:29N 65°49' E 012°26'0 0.0
2018-Jun-12 22:00N 65°49' E 012°26'0 0.0
2018-Jun-12 21:30N 65°49' E 012°26'0 0.0
2018-Jun-12 21:00N 65°49' E 012°26'1 2.9
2018-Jun-12 20:30N 65°49' E 012°29'4 7.2
2018-Jun-12 20:00N 65°45' E 012°31'2 5.0
2018-Jun-12 19:30N 65°43' E 012°27'5 9.3
2018-Jun-12 18:59N 65°48' E 012°31'3 5.6
2018-Jun-12 18:30N 65°49' E 012°26'3 5.8
2018-Jun-12 18:00N 65°47' E 012°31'4 7.8
2018-Jun-12 17:30N 65°44' E 012°28'1 1.4
2018-Jun-12 17:00N 65°44' E 012°29'4 7.6
2018-Jun-12 16:28N 65°48' E 012°31'2 4.9
2018-Jun-12 15:59N 65°49' E 012°26'1 1.9
2018-Jun-12 15:31N 65°49' E 012°27'5 9.2
2018-Jun-12 15:00N 65°44' E 012°28'1 1.3
2018-Jun-12 14:30N 65°43' E 012°27'5 9.7
2018-Jun-12 14:00N 65°48' E 012°31'3 5.4
2018-Jun-12 13:30N 65°49' E 012°26'2 4.4
2018-Jun-12 13:00N 65°48' E 012°31'5 9.8
2018-Jun-12 12:30N 65°43' E 012°28'2 3.3
2018-Jun-12 11:59N 65°45' E 012°30'4 7.7
2018-Jun-12 11:30N 65°49' E 012°30'1 2.1
2018-Jun-12 10:59N 65°49' E 012°27'4 8.0
2018-Jun-12 10:30N 65°46' E 012°33'4 7.3
2018-Jun-12 10:00N 65°43' E 012°28'1 1.8
2018-Jun-12 09:30N 65°44' E 012°28'4 7.4
2018-Jun-12 09:00N 65°47' E 012°31'2 4.8
2018-Jun-12 08:30N 65°49' E 012°26'4 7.5
2018-Jun-12 07:59N 65°45' E 012°29'2 3.6
2018-Jun-12 07:30N 65°43' E 012°27'3 6.7
2018-Jun-12 06:59N 65°46' E 012°33'4 8.4
2018-Jun-12 06:30N 65°49' E 012°27'1 1.5
2018-Jun-12 06:00N 65°49' E 012°29'3 6.5
2018-Jun-12 05:30N 65°46' E 012°33'3 6.8
2018-Jun-12 05:00N 65°43' E 012°27'1 2.5
2018-Jun-12 04:30N 65°44' E 012°29'4 7.3
2018-Jun-12 04:00N 65°48' E 012°31'3 5.0
2018-Jun-12 03:30N 65°49' E 012°26'0 0.0
2018-Jun-12 02:59N 65°49' E 012°26'0 0.0
2018-Jun-12 02:29N 65°49' E 012°26'0 0.0
2018-Jun-12 02:00N 65°49' E 012°26'0 0.0
2018-Jun-12 01:30N 65°49' E 012°26'0 0.0
2018-Jun-12 01:00N 65°49' E 012°26'0 0.0
2018-Jun-12 00:30N 65°49' E 012°26'0 0.0
2018-Jun-11 23:59N 65°49' E 012°26'0 0.0
2018-Jun-11 23:29N 65°49' E 012°26'0 0.0
2018-Jun-11 23:01N 65°49' E 012°26'0 0.0
2018-Jun-11 22:30N 65°49' E 012°26'0 0.0
2018-Jun-11 22:00N 65°49' E 012°26'0 0.0
2018-Jun-11 21:30N 65°49' E 012°26'0 0.0
2018-Jun-11 21:00N 65°49' E 012°26'2 3.3
2018-Jun-11 20:30N 65°49' E 012°29'3 6.4
2018-Jun-11 20:00N 65°46' E 012°33'4 7.3
2018-Jun-11 19:30N 65°43' E 012°28'5 9.3
2018-Jun-11 19:00N 65°47' E 012°31'3 5.1
2018-Jun-11 18:30N 65°49' E 012°26'4 8.6
2018-Jun-11 18:00N 65°46' E 012°33'3 6.7
2018-Jun-11 17:30N 65°43' E 012°27'2 5.0
2018-Jun-11 17:00N 65°45' E 012°31'3 5.9
2018-Jun-11 16:30N 65°48' E 012°31'2 4.6
2018-Jun-11 16:00N 65°49' E 012°26'0 0.1
2018-Jun-11 15:30N 65°49' E 012°26'4 8.3
2018-Jun-11 15:00N 65°45' E 012°29'3 5.2
2018-Jun-11 14:30N 65°43' E 012°28'510.0
2018-Jun-11 14:00N 65°48' E 012°31'3 5.6
2018-Jun-11 13:30N 65°49' E 012°26'3 5.3
2018-Jun-11 12:59N 65°48' E 012°32'5 9.7
2018-Jun-11 12:30N 65°43' E 012°27'1 2.5
2018-Jun-11 11:59N 65°44' E 012°29'4 7.7
2018-Jun-11 11:29N 65°48' E 012°31'2 4.1
2018-Jun-11 10:59N 65°49' E 012°26'5 9.3
2018-Jun-11 10:30N 65°46' E 012°33'4 7.3
2018-Jun-11 09:59N 65°43' E 012°28'4 7.6
2018-Jun-11 09:30N 65°46' E 012°33'3 6.5
2018-Jun-11 09:00N 65°49' E 012°29'1 2.8
2018-Jun-11 08:30N 65°49' E 012°26'3 7.1
2018-Jun-11 08:01N 65°46' E 012°30'4 7.1
2018-Jun-11 07:31N 65°43' E 012°28'4 7.3
2018-Jun-11 07:00N 65°46' E 012°33'3 6.2
2018-Jun-11 06:29N 65°48' E 012°30'1 3.1
2018-Jun-11 06:00N 65°49' E 012°26'2 4.7
2018-Jun-11 05:30N 65°47' E 012°31'4 8.4
2018-Jun-11 05:00N 65°43' E 012°28'2 3.7
2018-Jun-11 04:30N 65°45' E 012°31'3 7.0
2018-Jun-11 04:00N 65°48' E 012°30'2 3.7
2018-Jun-11 03:29N 65°49' E 012°26'0 0.0
2018-Jun-11 03:00N 65°49' E 012°26'0 0.0
2018-Jun-11 02:30N 65°49' E 012°26'0 0.0
2018-Jun-11 02:00N 65°49' E 012°26'0 0.0
2018-Jun-11 01:30N 65°49' E 012°26'0 0.0
2018-Jun-11 01:00N 65°49' E 012°26'0 0.0
2018-Jun-11 00:29N 65°49' E 012°26'0 0.0
2018-Jun-11 00:00N 65°49' E 012°26'0 0.0
2018-Jun-10 23:30N 65°49' E 012°26'0 0.0
2018-Jun-10 23:00N 65°49' E 012°26'0 0.0
2018-Jun-10 22:30N 65°49' E 012°26'0 0.0
2018-Jun-10 22:00N 65°49' E 012°26'0 0.0
2018-Jun-10 21:30N 65°49' E 012°26'  
Track history (hours):
 
Tides and Currents Weather Stations Pressure Air Temp Water Temp Dewpoint Dewpoint Depression Visibility Wind Speed Wind Dir Waves Ship Positions

Kjella

Last reported at 2018-Jun-20 21:05 UTC. Time now 2018-Jun-20 22:54 UTC.
Position N 65°48' E 012°30'.

Length 55 m; draft 3.5 m.

Type: Passenger vessel. MMSI: 257049700.

Date/timePositionNaut miles runAvg speedWind from/ knotsBaromVisibWave heightAir tempDewpointWater temp
2018-Jun-20 21:05N 65°48' E 012°30'0 0.9
2018-Jun-20 20:55N 65°48' E 012°31'0 0.3
2018-Jun-20 20:22N 65°48' E 012°30'3 7.3
2018-Jun-20 19:57N 65°45' E 012°32'3 2.8
2018-Jun-20 18:53N 65°48' E 012°30'0 0.4
2018-Jun-20 18:13N 65°48' E 012°30'2 6.9
2018-Jun-20 17:58N 65°47' E 012°31'4 7.8
2018-Jun-20 17:29N 65°43' E 012°27'3 5.0
2018-Jun-20 16:59N 65°45' E 012°32'3 5.9
2018-Jun-20 16:27N 65°48' E 012°31'0 0.1
2018-Jun-20 15:30N 65°48' E 012°30'3 6.2
2018-Jun-20 14:59N 65°45' E 012°31'3 2.5
2018-Jun-20 13:47N 65°48' E 012°31'0 0.1
2018-Jun-20 13:01N 65°48' E 012°31'1 8.5
2018-Jun-20 12:57N 65°48' E 012°32'5 9.6
2018-Jun-20 12:27N 65°43' E 012°27'0 0.9
2018-Jun-20 12:00N 65°44' E 012°28'5 9.7
2018-Jun-20 11:30N 65°48' E 012°30'0 0.0
2018-Jun-20 10:34N 65°48' E 012°30'512.1
2018-Jun-20 10:11N 65°44' E 012°28'1 5.9
2018-Jun-20 10:00N 65°43' E 012°27'3 5.5
2018-Jun-20 09:23N 65°45' E 012°32'2 5.5
2018-Jun-20 08:58N 65°48' E 012°32'1 1.1
2018-Jun-20 08:16N 65°48' E 012°30'4 9.5
2018-Jun-20 07:48N 65°44' E 012°28'1 1.8
2018-Jun-20 07:11N 65°45' E 012°30'2 4.7
2018-Jun-20 06:48N 65°47' E 012°31'2 1.9
2018-Jun-20 05:44N 65°48' E 012°30'2 6.3
2018-Jun-20 05:27N 65°47' E 012°31'4 7.6
2018-Jun-20 04:56N 65°43' E 012°28'3 6.0
2018-Jun-20 04:28N 65°45' E 012°32'3 0.4
2018-Jun-19 20:19N 65°48' E 012°30'3 7.2
2018-Jun-19 19:52N 65°45' E 012°32'2 2.7
2018-Jun-19 19:02N 65°48' E 012°31'0 4.2
2018-Jun-19 18:58N 65°48' E 012°32'1 0.8
2018-Jun-19 17:58N 65°48' E 012°30'5 9.0
2018-Jun-19 17:24N 65°43' E 012°28'3 7.1
2018-Jun-19 16:58N 65°46' E 012°32'4 2.8
2018-Jun-19 15:35N 65°49' E 012°27'111.1
2018-Jun-19 15:28N 65°48' E 012°30'3 6.9
2018-Jun-19 15:01N 65°45' E 012°31'3 5.0
2018-Jun-19 14:27N 65°43' E 012°28'5 9.8
2018-Jun-19 13:58N 65°48' E 012°31'1 1.0
2018-Jun-19 13:06N 65°48' E 012°30'1 5.2
2018-Jun-19 12:55N 65°47' E 012°31'410.3
2018-Jun-19 12:29N 65°43' E 012°27'3 4.8
2018-Jun-19 11:52N 65°45' E 012°32'3 7.3
2018-Jun-19 11:27N 65°48' E 012°30'0 0.2
2018-Jun-19 10:45N 65°48' E 012°31'3 7.5
2018-Jun-19 10:22N 65°46' E 012°32'5 0.3
2018-Jun-18 20:50N 65°49' E 012°26'0 0.0
2018-Jun-18 20:30N 65°49' E 012°26'3 5.9
2018-Jun-18 19:59N 65°47' E 012°30'4 8.8
2018-Jun-18 19:30N 65°43' E 012°28'4 8.5
2018-Jun-18 18:59N 65°47' E 012°30'3 6.1
2018-Jun-18 18:30N 65°49' E 012°26'3 6.4
2018-Jun-18 18:00N 65°47' E 012°31'4 7.5
2018-Jun-18 17:30N 65°43' E 012°28'2 4.9
2018-Jun-18 17:00N 65°45' E 012°32'3 5.5
2018-Jun-18 16:30N 65°48' E 012°31'2 4.9
2018-Jun-18 16:00N 65°49' E 012°26'2 3.4
2018-Jun-18 15:30N 65°49' E 012°29'3 6.4
2018-Jun-18 15:00N 65°46' E 012°33'3 7.0
2018-Jun-18 14:31N 65°43' E 012°28'4 7.9
2018-Jun-18 14:00N 65°47' E 012°30'3 6.4
2018-Jun-18 13:31N 65°49' E 012°26'3 5.3
2018-Jun-18 13:00N 65°48' E 012°31'5 9.4
2018-Jun-18 12:29N 65°43' E 012°27'1 2.9
2018-Jun-18 12:00N 65°44' E 012°29'3 6.8
2018-Jun-18 11:30N 65°48' E 012°31'3 5.0
2018-Jun-18 11:00N 65°49' E 012°26'5 9.8
2018-Jun-18 10:30N 65°46' E 012°33'4 7.1
2018-Jun-18 09:59N 65°43' E 012°28'2 4.1
2018-Jun-18 09:31N 65°45' E 012°30'3 6.7
2018-Jun-18 09:00N 65°48' E 012°31'3 5.4
2018-Jun-18 08:30N 65°49' E 012°26'3 6.5
2018-Jun-18 08:00N 65°47' E 012°30'4 7.8
2018-Jun-18 07:30N 65°43' E 012°28'4 7.4
2018-Jun-18 07:00N 65°46' E 012°33'3 6.6
2018-Jun-18 06:30N 65°48' E 012°30'2 3.0
2018-Jun-18 06:00N 65°49' E 012°26'3 5.8
2018-Jun-18 05:31N 65°47' E 012°31'4 7.1
2018-Jun-18 04:59N 65°43' E 012°28'1 2.6
2018-Jun-18 04:30N 65°44' E 012°30'4 7.5
2018-Jun-18 04:00N 65°48' E 012°31'2 4.7
2018-Jun-18 03:30N 65°49' E 012°26'0 0.0
2018-Jun-18 03:00N 65°49' E 012°26'0 0.0
2018-Jun-18 02:29N 65°49' E 012°26'0 0.0
2018-Jun-18 02:00N 65°49' E 012°26'0 0.0
2018-Jun-18 01:30N 65°49' E 012°26'0 0.0
2018-Jun-18 00:59N 65°49' E 012°26'0 0.0
2018-Jun-18 00:29N 65°49' E 012°26'0 0.0
2018-Jun-17 23:59N 65°49' E 012°26'0 0.0
2018-Jun-17 23:31N 65°49' E 012°26'0 0.0
2018-Jun-17 23:01N 65°49' E 012°26'0 0.0
2018-Jun-17 22:30N 65°49' E 012°26'0 0.0
2018-Jun-17 22:00N 65°49' E 012°26'0 0.0
2018-Jun-17 21:30N 65°49' E 012°26'0 0.0
2018-Jun-17 21:00N 65°49' E 012°26'0 0.0
2018-Jun-17 20:30N 65°49' E 012°26'3 5.2
2018-Jun-17 20:00N 65°48' E 012°31'510.2
2018-Jun-17 19:31N 65°43' E 012°28'5 8.8
2018-Jun-17 19:00N 65°47' E 012°31'3 5.7
2018-Jun-17 18:29N 65°49' E 012°26'3 6.9
2018-Jun-17 18:00N 65°47' E 012°31'4 7.6
2018-Jun-17 17:30N 65°43' E 012°28'2 4.7
2018-Jun-17 17:01N 65°45' E 012°31'3 5.8
2018-Jun-17 16:30N 65°48' E 012°31'3 5.2
2018-Jun-17 16:00N 65°49' E 012°26'2 4.4
2018-Jun-17 15:29N 65°48' E 012°31'3 5.6
2018-Jun-17 15:00N 65°45' E 012°32'3 6.8
2018-Jun-17 14:30N 65°43' E 012°28'4 8.9
2018-Jun-17 14:00N 65°47' E 012°31'3 5.9
2018-Jun-17 13:30N 65°49' E 012°26'0 0.0
2018-Jun-17 13:00N 65°49' E 012°26'0 0.0
2018-Jun-17 12:30N 65°49' E 012°26'0 0.0
2018-Jun-17 11:59N 65°49' E 012°26'0 0.0
2018-Jun-17 11:29N 65°49' E 012°26'0 0.0
2018-Jun-17 11:00N 65°49' E 012°26'5 9.6
2018-Jun-17 10:30N 65°46' E 012°33'4 7.3
2018-Jun-17 10:00N 65°43' E 012°28'2 4.1
2018-Jun-17 09:31N 65°45' E 012°30'3 6.2
2018-Jun-17 08:59N 65°48' E 012°32'2 4.4
2018-Jun-17 08:30N 65°49' E 012°27'3 5.9
2018-Jun-17 08:01N 65°46' E 012°29'3 6.5
2018-Jun-17 07:31N 65°43' E 012°28'3 5.3
2018-Jun-17 06:59N 65°45' E 012°31'3 7.0
2018-Jun-17 06:30N 65°48' E 012°30'2 3.7
2018-Jun-17 06:00N 65°49' E 012°26'0 0.0
2018-Jun-17 05:30N 65°49' E 012°26'0 0.0
2018-Jun-17 05:00N 65°49' E 012°26'0 0.0
2018-Jun-17 04:30N 65°49' E 012°26'0 0.0
2018-Jun-17 04:00N 65°49' E 012°26'0 0.0
2018-Jun-17 03:30N 65°49' E 012°26'0 0.0
2018-Jun-17 03:00N 65°49' E 012°26'0 0.0
2018-Jun-17 02:30N 65°49' E 012°26'0 0.0
2018-Jun-17 02:00N 65°49' E 012°26'0 0.0
2018-Jun-17 01:30N 65°49' E 012°26'0 0.0
2018-Jun-17 01:00N 65°49' E 012°26'0 0.0
2018-Jun-17 00:30N 65°49' E 012°26'0 0.0
2018-Jun-17 00:00N 65°49' E 012°26'0 0.0
2018-Jun-16 23:31N 65°49' E 012°26'0 0.0
2018-Jun-16 23:01N 65°49' E 012°26'0 0.0
2018-Jun-16 22:30N 65°49' E 012°26'0 0.0
2018-Jun-16 22:00N 65°49' E 012°26'0 0.0
2018-Jun-16 21:30N 65°49' E 012°26'0 0.0
2018-Jun-16 21:00N 65°49' E 012°26'0 0.0
2018-Jun-16 20:28N 65°49' E 012°26'3 5.4
2018-Jun-16 20:00N 65°48' E 012°31'510.1
2018-Jun-16 19:30N 65°43' E 012°28'510.5
2018-Jun-16 19:00N 65°48' E 012°31'3 5.4
2018-Jun-16 18:30N 65°49' E 012°26'1 2.8
2018-Jun-16 18:00N 65°49' E 012°29'4 8.6
2018-Jun-16 17:30N 65°44' E 012°28'1 1.8
2018-Jun-16 16:59N 65°45' E 012°30'3 6.7
2018-Jun-16 16:30N 65°48' E 012°31'3 5.4
2018-Jun-16 16:00N 65°49' E 012°26'2 3.1
2018-Jun-16 15:30N 65°49' E 012°29'3 7.0
2018-Jun-16 15:00N 65°46' E 012°33'4 7.3
2018-Jun-16 14:30N 65°43' E 012°28'5 9.7
2018-Jun-16 13:59N 65°48' E 012°31'3 5.7
2018-Jun-16 13:30N 65°49' E 012°26'0 0.0
2018-Jun-16 13:00N 65°49' E 012°26'0 0.0
2018-Jun-16 12:30N 65°49' E 012°26'0 0.0
2018-Jun-16 11:59N 65°49' E 012°26'0 0.0
2018-Jun-16 11:30N 65°49' E 012°26'1 1.5
2018-Jun-16 11:00N 65°49' E 012°27'4 7.6
2018-Jun-16 10:30N 65°46' E 012°32'3 6.5
2018-Jun-16 10:00N 65°43' E 012°28'2 4.3
2018-Jun-16 09:31N 65°45' E 012°30'3 5.9
2018-Jun-16 09:00N 65°48' E 012°32'3 5.5
2018-Jun-16 08:30N 65°49' E 012°26'3 5.4
2018-Jun-16 08:00N 65°48' E 012°31'510.4
2018-Jun-16 07:30N 65°43' E 012°28'3 6.5
2018-Jun-16 07:00N 65°45' E 012°32'3 6.5
2018-Jun-16 06:30N 65°48' E 012°30'2 3.5
2018-Jun-16 06:00N 65°49' E 012°26'2 4.9
2018-Jun-16 05:30N 65°48' E 012°31'510.3
2018-Jun-16 05:00N 65°43' E 012°28'3 5.6
2018-Jun-16 04:30N 65°45' E 012°31'3 6.3
2018-Jun-16 04:00N 65°48' E 012°31'2 4.4
2018-Jun-16 03:30N 65°49' E 012°26'0 0.0
2018-Jun-16 02:59N 65°49' E 012°26'0 0.0
2018-Jun-16 02:30N 65°49' E 012°26'0 0.0
2018-Jun-16 02:00N 65°49' E 012°26'0 0.0
2018-Jun-16 01:30N 65°49' E 012°26'0 0.0
2018-Jun-16 00:59N 65°49' E 012°26'0 0.0
2018-Jun-16 00:29N 65°49' E 012°26'0 0.0
2018-Jun-15 23:59N 65°49' E 012°26'0 0.0
2018-Jun-15 23:29N 65°49' E 012°26'0 0.0
2018-Jun-15 23:00N 65°49' E 012°26'0 0.0
2018-Jun-15 22:29N 65°49' E 012°26'0 0.0
2018-Jun-15 22:00N 65°49' E 012°26'0 0.0
2018-Jun-15 21:30N 65°49' E 012°26'0 0.0
2018-Jun-15 21:00N 65°49' E 012°26'1 1.4
2018-Jun-15 20:29N 65°49' E 012°27'4 8.3
2018-Jun-15 20:00N 65°46' E 012°33'4 7.7
2018-Jun-15 19:31N 65°43' E 012°28'5 9.1
2018-Jun-15 19:00N 65°47' E 012°31'3 5.6
2018-Jun-15 18:30N 65°49' E 012°26'3 6.9
2018-Jun-15 17:59N 65°46' E 012°30'3 7.1
2018-Jun-15 17:30N 65°43' E 012°28'4 7.1
2018-Jun-15 17:00N 65°46' E 012°33'3 5.9
2018-Jun-15 16:29N 65°48' E 012°30'2 3.8
2018-Jun-15 16:00N 65°49' E 012°26'2 3.3
2018-Jun-15 15:30N 65°49' E 012°29'3 6.8
2018-Jun-15 15:00N 65°45' E 012°31'2 4.8
2018-Jun-15 14:29N 65°43' E 012°27'5 9.3
2018-Jun-15 14:00N 65°48' E 012°31'3 5.6
2018-Jun-15 13:31N 65°49' E 012°26'3 5.4
2018-Jun-15 13:00N 65°48' E 012°31'5 9.6
2018-Jun-15 12:30N 65°43' E 012°27'2 4.2
2018-Jun-15 12:00N 65°45' E 012°31'3 6.1
2018-Jun-15 11:30N 65°48' E 012°31'2 4.9
2018-Jun-15 11:00N 65°49' E 012°26'4 7.0
2018-Jun-15 10:30N 65°47' E 012°31'4 8.0
2018-Jun-15 10:00N 65°43' E 012°28'3 5.8
2018-Jun-15 09:30N 65°45' E 012°32'3 5.1
2018-Jun-15 09:00N 65°48' E 012°31'3 5.6
2018-Jun-15 08:30N 65°49' E 012°26'3 6.3
2018-Jun-15 08:00N 65°47' E 012°30'4 8.0
2018-Jun-15 07:31N 65°43' E 012°28'4 7.1
2018-Jun-15 07:00N 65°46' E 012°33'3 6.7
2018-Jun-15 06:30N 65°48' E 012°30'0 0.1
2018-Jun-15 06:01N 65°48' E 012°30'3 6.4
2018-Jun-15 05:30N 65°46' E 012°33'4 7.2
2018-Jun-15 05:00N 65°43' E 012°28'3 5.6
2018-Jun-15 04:30N 65°45' E 012°32'3 6.5
2018-Jun-15 04:00N 65°48' E 012°30'2 3.6
2018-Jun-15 03:29N 65°49' E 012°26'0 0.0
2018-Jun-15 03:00N 65°49' E 012°26'0 0.0
2018-Jun-15 02:30N 65°49' E 012°26'0 0.0
2018-Jun-15 02:01N 65°49' E 012°26'0 0.0
2018-Jun-15 01:31N 65°49' E 012°26'0 0.0
2018-Jun-15 01:00N 65°49' E 012°26'0 0.0
2018-Jun-15 00:30N 65°49' E 012°26'0 0.0
2018-Jun-15 00:00N 65°49' E 012°26'0 0.0
2018-Jun-14 23:29N 65°49' E 012°26'0 0.0
2018-Jun-14 22:59N 65°49' E 012°26'0 0.0
2018-Jun-14 22:30N 65°49' E 012°26'0 0.0
2018-Jun-14 21:59N 65°49' E 012°26'0 0.0
2018-Jun-14 21:30N 65°49' E 012°26'0 0.0
2018-Jun-14 21:00N 65°49' E 012°26'0 0.0
2018-Jun-14 20:30N 65°49' E 012°26'3 6.0
2018-Jun-14 20:01N 65°47' E 012°31'4 8.8
2018-Jun-14 19:30N 65°43' E 012°28'4 8.3
2018-Jun-14 19:00N 65°47' E 012°30'3 6.2
2018-Jun-14 18:30N 65°49' E 012°26'3 5.6
2018-Jun-14 18:00N 65°48' E 012°31'4 7.1
2018-Jun-14 17:30N 65°44' E 012°30'1 1.7
2018-Jun-14 17:00N 65°44' E 012°28'5 9.1
2018-Jun-14 16:30N 65°48' E 012°31'2 4.1
2018-Jun-14 15:59N 65°49' E 012°26'1 1.6
2018-Jun-14 15:30N 65°49' E 012°27'4 7.8
2018-Jun-14 15:00N 65°46' E 012°33'4 7.1
2018-Jun-14 14:30N 65°43' E 012°28'4 8.8
2018-Jun-14 14:00N 65°47' E 012°31'3 5.7
2018-Jun-14 13:29N 65°49' E 012°26'2 4.3
2018-Jun-14 13:00N 65°48' E 012°30'510.0
2018-Jun-14 12:30N 65°43' E 012°28'2 4.1
2018-Jun-14 12:00N 65°45' E 012°31'3 6.0
2018-Jun-14 11:30N 65°48' E 012°31'2 4.8
2018-Jun-14 11:00N 65°49' E 012°26'5 9.2
2018-Jun-14 10:30N 65°46' E 012°33'4 7.7
2018-Jun-14 10:00N 65°43' E 012°28'2 4.3
2018-Jun-14 09:30N 65°45' E 012°30'3 6.4
2018-Jun-14 09:00N 65°48' E 012°32'3 5.4
2018-Jun-14 08:30N 65°49' E 012°26'3 6.6
2018-Jun-14 08:01N 65°47' E 012°30'4 8.0
2018-Jun-14 07:30N 65°43' E 012°28'4 7.5
2018-Jun-14 07:00N 65°46' E 012°33'3 6.5
2018-Jun-14 06:31N 65°48' E 012°30'2 3.6
2018-Jun-14 06:00N 65°49' E 012°26'3 6.0
2018-Jun-14 05:30N 65°47' E 012°31'4 7.2
2018-Jun-14 05:00N 65°44' E 012°29'1 1.6
2018-Jun-14 04:31N 65°44' E 012°29'4 7.3
2018-Jun-14 04:00N 65°48' E 012°31'2 4.9
2018-Jun-14 03:30N 65°49' E 012°26'0 0.0
2018-Jun-14 03:00N 65°49' E 012°26'0 0.0
2018-Jun-14 02:30N 65°49' E 012°26'0 0.0
2018-Jun-14 02:00N 65°49' E 012°26'0 0.0
2018-Jun-14 01:31N 65°49' E 012°26'0 0.0
2018-Jun-14 01:00N 65°49' E 012°26'0 0.0
2018-Jun-14 00:29N 65°49' E 012°26'0 0.0
2018-Jun-14 00:00N 65°49' E 012°26'0 0.0
2018-Jun-13 23:30N 65°49' E 012°26'0 0.0
2018-Jun-13 23:00N 65°49' E 012°26'0 0.0
2018-Jun-13 22:30N 65°49' E 012°26'0 0.0
2018-Jun-13 22:00N 65°49' E 012°26'0 0.0
2018-Jun-13 21:30N 65°49' E 012°26'0 0.0
2018-Jun-13 21:00N 65°49' E 012°26'0 0.0
2018-Jun-13 20:30N 65°49' E 012°26'4 7.4
2018-Jun-13 20:00N 65°46' E 012°30'3 5.7
2018-Jun-13 19:30N 65°43' E 012°27'5 9.6
2018-Jun-13 19:00N 65°48' E 012°32'3 5.4
2018-Jun-13 18:30N 65°49' E 012°26'4 8.2
2018-Jun-13 18:00N 65°46' E 012°32'3 6.9
2018-Jun-13 17:30N 65°43' E 012°27'2 3.9
2018-Jun-13 17:00N 65°45' E 012°30'3 6.3
2018-Jun-13 16:30N 65°48' E 012°31'3 5.2
2018-Jun-13 16:00N 65°49' E 012°26'2 3.3
2018-Jun-13 15:30N 65°49' E 012°29'3 6.3
2018-Jun-13 15:00N 65°46' E 012°33'4 7.5
2018-Jun-13 14:30N 65°43' E 012°28'4 8.1
2018-Jun-13 14:00N 65°47' E 012°30'3 6.2
2018-Jun-13 13:30N 65°49' E 012°26'3 5.6
2018-Jun-13 13:00N 65°48' E 012°31'5 9.6
2018-Jun-13 12:30N 65°43' E 012°27'2 3.0
2018-Jun-13 12:00N 65°45' E 012°29'4 7.0
2018-Jun-13 11:30N 65°48' E 012°31'2 4.3
2018-Jun-13 11:00N 65°49' E 012°26'4 8.8
2018-Jun-13 10:30N 65°46' E 012°33'4 7.6
2018-Jun-13 10:00N 65°43' E 012°28'2 4.4
2018-Jun-13 09:31N 65°45' E 012°30'3 6.1
2018-Jun-13 09:00N 65°48' E 012°32'3 5.7
2018-Jun-13 08:31N 65°49' E 012°26'3 6.3
2018-Jun-13 08:00N 65°47' E 012°30'4 8.2
2018-Jun-13 07:31N 65°43' E 012°28'4 7.4
2018-Jun-13 07:00N 65°46' E 012°33'3 6.4
2018-Jun-13 06:30N 65°48' E 012°30'2 3.7
2018-Jun-13 06:01N 65°49' E 012°26'3 5.5
2018-Jun-13 05:31N 65°48' E 012°31'5 9.8
2018-Jun-13 05:00N 65°43' E 012°27'2 4.6
2018-Jun-13 04:30N 65°45' E 012°31'4 7.0
2018-Jun-13 04:00N 65°48' E 012°30'2 3.7
2018-Jun-13 03:30N 65°49' E 012°26'0 0.0
2018-Jun-13 03:00N 65°49' E 012°26'0 0.0
2018-Jun-13 02:30N 65°49' E 012°26'0 0.0
2018-Jun-13 01:59N 65°49' E 012°26'0 0.0
2018-Jun-13 01:30N 65°49' E 012°26'0 0.0
2018-Jun-13 00:59N 65°49' E 012°26'0 0.0
2018-Jun-13 00:28N 65°49' E 012°26'0 0.0
2018-Jun-13 00:00N 65°49' E 012°26'0 0.0
2018-Jun-12 23:30N 65°49' E 012°26'0 0.0
2018-Jun-12 23:00N 65°49' E 012°26'0 0.0
2018-Jun-12 22:29N 65°49' E 012°26'0 0.0
2018-Jun-12 22:00N 65°49' E 012°26'0 0.0
2018-Jun-12 21:30N 65°49' E 012°26'0 0.0
2018-Jun-12 21:00N 65°49' E 012°26'1 2.9
2018-Jun-12 20:30N 65°49' E 012°29'4 7.2
2018-Jun-12 20:00N 65°45' E 012°31'2 5.0
2018-Jun-12 19:30N 65°43' E 012°27'5 9.3
2018-Jun-12 18:59N 65°48' E 012°31'3 5.6
2018-Jun-12 18:30N 65°49' E 012°26'3 5.8
2018-Jun-12 18:00N 65°47' E 012°31'4 7.8
2018-Jun-12 17:30N 65°44' E 012°28'1 1.4
2018-Jun-12 17:00N 65°44' E 012°29'4 7.6
2018-Jun-12 16:28N 65°48' E 012°31'2 4.9
2018-Jun-12 15:59N 65°49' E 012°26'1 1.9
2018-Jun-12 15:31N 65°49' E 012°27'5 9.2
2018-Jun-12 15:00N 65°44' E 012°28'1 1.3
2018-Jun-12 14:30N 65°43' E 012°27'5 9.7
2018-Jun-12 14:00N 65°48' E 012°31'3 5.4
2018-Jun-12 13:30N 65°49' E 012°26'2 4.4
2018-Jun-12 13:00N 65°48' E 012°31'5 9.8
2018-Jun-12 12:30N 65°43' E 012°28'2 3.3
2018-Jun-12 11:59N 65°45' E 012°30'4 7.7
2018-Jun-12 11:30N 65°49' E 012°30'1 2.1
2018-Jun-12 10:59N 65°49' E 012°27'4 8.0
2018-Jun-12 10:30N 65°46' E 012°33'4 7.3
2018-Jun-12 10:00N 65°43' E 012°28'1 1.8
2018-Jun-12 09:30N 65°44' E 012°28'4 7.4
2018-Jun-12 09:00N 65°47' E 012°31'2 4.8
2018-Jun-12 08:30N 65°49' E 012°26'4 7.5
2018-Jun-12 07:59N 65°45' E 012°29'2 3.6
2018-Jun-12 07:30N 65°43' E 012°27'3 6.7
2018-Jun-12 06:59N 65°46' E 012°33'4 8.4
2018-Jun-12 06:30N 65°49' E 012°27'1 1.5
2018-Jun-12 06:00N 65°49' E 012°29'3 6.5
2018-Jun-12 05:30N 65°46' E 012°33'3 6.8
2018-Jun-12 05:00N 65°43' E 012°27'1 2.5
2018-Jun-12 04:30N 65°44' E 012°29'4 7.3
2018-Jun-12 04:00N 65°48' E 012°31'3 5.0
2018-Jun-12 03:30N 65°49' E 012°26'0 0.0
2018-Jun-12 02:59N 65°49' E 012°26'0 0.0
2018-Jun-12 02:29N 65°49' E 012°26'0 0.0
2018-Jun-12 02:00N 65°49' E 012°26'0 0.0
2018-Jun-12 01:30N 65°49' E 012°26'0 0.0
2018-Jun-12 01:00N 65°49' E 012°26'0 0.0
2018-Jun-12 00:30N 65°49' E 012°26'0 0.0
2018-Jun-11 23:59N 65°49' E 012°26'0 0.0
2018-Jun-11 23:29N 65°49' E 012°26'0 0.0
2018-Jun-11 23:01N 65°49' E 012°26'0 0.0
2018-Jun-11 22:30N 65°49' E 012°26'0 0.0
2018-Jun-11 22:00N 65°49' E 012°26'0 0.0
2018-Jun-11 21:30N 65°49' E 012°26'0 0.0
2018-Jun-11 21:00N 65°49' E 012°26'2 3.3
2018-Jun-11 20:30N 65°49' E 012°29'3 6.4
2018-Jun-11 20:00N 65°46' E 012°33'4 7.3
2018-Jun-11 19:30N 65°43' E 012°28'5 9.3
2018-Jun-11 19:00N 65°47' E 012°31'3 5.1
2018-Jun-11 18:30N 65°49' E 012°26'4 8.6
2018-Jun-11 18:00N 65°46' E 012°33'3 6.7
2018-Jun-11 17:30N 65°43' E 012°27'2 5.0
2018-Jun-11 17:00N 65°45' E 012°31'3 5.9
2018-Jun-11 16:30N 65°48' E 012°31'2 4.6
2018-Jun-11 16:00N 65°49' E 012°26'0 0.1
2018-Jun-11 15:30N 65°49' E 012°26'4 8.3
2018-Jun-11 15:00N 65°45' E 012°29'3 5.2
2018-Jun-11 14:30N 65°43' E 012°28'510.0
2018-Jun-11 14:00N 65°48' E 012°31'3 5.6
2018-Jun-11 13:30N 65°49' E 012°26'3 5.3
2018-Jun-11 12:59N 65°48' E 012°32'5 9.7
2018-Jun-11 12:30N 65°43' E 012°27'1 2.5
2018-Jun-11 11:59N 65°44' E 012°29'4 7.7
2018-Jun-11 11:29N 65°48' E 012°31'2 4.1
2018-Jun-11 10:59N 65°49' E 012°26'5 9.3
2018-Jun-11 10:30N 65°46' E 012°33'4 7.3
2018-Jun-11 09:59N 65°43' E 012°28'4 7.6
2018-Jun-11 09:30N 65°46' E 012°33'3 6.5
2018-Jun-11 09:00N 65°49' E 012°29'1 2.8
2018-Jun-11 08:30N 65°49' E 012°26'3 7.1
2018-Jun-11 08:01N 65°46' E 012°30'4 7.1
2018-Jun-11 07:31N 65°43' E 012°28'4 7.3
2018-Jun-11 07:00N 65°46' E 012°33'3 6.2
2018-Jun-11 06:29N 65°48' E 012°30'1 3.1
2018-Jun-11 06:00N 65°49' E 012°26'2 4.7
2018-Jun-11 05:30N 65°47' E 012°31'4 8.4
2018-Jun-11 05:00N 65°43' E 012°28'2 3.7
2018-Jun-11 04:30N 65°45' E 012°31'3 7.0
2018-Jun-11 04:00N 65°48' E 012°30'2 3.7
2018-Jun-11 03:29N 65°49' E 012°26'0 0.0
2018-Jun-11 03:00N 65°49' E 012°26'0 0.0
2018-Jun-11 02:30N 65°49' E 012°26'0 0.0
2018-Jun-11 02:00N 65°49' E 012°26'0 0.0
2018-Jun-11 01:30N 65°49' E 012°26'0 0.0
2018-Jun-11 01:00N 65°49' E 012°26'0 0.0
2018-Jun-11 00:29N 65°49' E 012°26'0 0.0
2018-Jun-11 00:00N 65°49' E 012°26'0 0.0
2018-Jun-10 23:30N 65°49' E 012°26'0 0.0
2018-Jun-10 23:00N 65°49' E 012°26'0 0.0
2018-Jun-10 22:30N 65°49' E 012°26'0 0.0
2018-Jun-10 22:00N 65°49' E 012°26'0 0.0
2018-Jun-10 21:30N 65°49' E 012°26'  

Dump ship's entire track history